ABE weather

Lehigh Valley International Airport
Allentown, Pennsylvania, United States

Public forecast

Using degrees Fahrenheit for public forecast. Weather courtesy of forecast.io.

Current aviation weather report (METAR) for Lehigh Valley International Airport

Retrieved 2020/01/29 13:51 UTC (28 minutes ago):

KABE 291351Z 35010KT 10SM BKN036 02/M07 A3009 RMK AO2 SLP193 T00171072

Aviation forecast (TAF) for Lehigh Valley International Airport

Retrieved 2020/01/29 12:34 UTC (2 hours ago):

TAF KABE 291131Z 2912/3012 35013KT P6SM OVC035 FM291500 32010KT P6SM SCT045 FM292200 33006KT P6SM FEW250 FM301000 VRB02KT P6SM FEW250